Latest Weather Observations for Coonawarra

IDS60801

Issued at 10:05 pm CST Wednesday 23 April 2014 (issued every 30 minutes, with the page automatically refreshed every 10 minutes)

About weather observations | Map of weather stations | Latest weather observations for SA | Other Formats
Station Details ID: 026091 Name: COONAWARRA Lat: -37.29 Lon: 140.83 Height: 57.0 m
Data from the previous 72 hours. | See also: Recent months at Coonawarra
Date/Time
CST
Temp
°C
App
Temp
°C
Dew
Point
Rel
Hum
%
Delta-T
°C
Wind Press
QNH
hPa
Press
MSL
hPa
Rain
since 9 am
mm
Dir
 
Spd
km/h
Gust
km/h
Spd
kts
Gust
kts
23/10:00pm 13.0 9.5 7.2 68 2.8 NNW 15 19 8 10 1013.2 - 0.0
23/09:30pm 13.3 10.2 7.1 66 3.0 NNW 13 19 7 10 1013.3 - 0.0
23/09:00pm 13.3 9.8 7.1 66 3.0 NNW 15 20 8 11 1013.2 1013.1 0.0
23/08:30pm 12.8 9.6 6.8 67 2.9 NNW 13 19 7 10 1013.3 - 0.0
23/08:00pm 12.1 8.8 6.4 68 2.7 N 13 15 7 8 1013.5 - 0.0
23/07:30pm 11.5 9.1 7.1 74 2.1 N 9 13 5 7 1013.6 - 0.0
23/07:00pm 12.1 9.4 7.4 73 2.3 NNW 11 15 6 8 1013.7 - 0.0
23/06:30pm 12.7 9.5 6.9 68 2.8 NNW 13 15 7 8 1013.6 - 0.0
23/06:00pm 14.1 10.9 6.7 61 3.6 NNW 13 17 7 9 1013.4 1013.3 0.0
23/05:30pm 15.0 12.1 6.6 57 4.1 NW 11 15 6 8 1013.3 - 0.0
23/05:00pm 17.0 12.2 5.4 46 5.6 WNW 20 32 11 17 1013.3 - 0.0
23/04:30pm 17.3 12.7 6.6 49 5.3 NW 20 28 11 15 1013.3 - 0.0
23/04:00pm 17.0 12.5 6.2 49 5.3 WNW 19 28 10 15 1013.4 - 0.0
23/03:30pm 17.4 12.4 4.6 42 6.1 NW 20 30 11 16 1013.5 - 0.0
23/03:00pm 18.9 14.1 5.7 42 6.5 NW 20 32 11 17 1013.6 1013.5 0.0
23/02:30pm 18.7 14.2 6.2 44 6.2 NW 19 26 10 14 1013.8 - 0.0
23/02:00pm 18.3 13.9 6.7 46 5.8 NW 19 24 10 13 1014.0 - 0.0
23/01:30pm 18.9 14.4 7.0 46 6.0 WNW 20 32 11 17 1014.4 - 0.0
23/01:00pm 18.3 13.9 7.2 48 5.6 WNW 20 32 11 17 1014.8 - 0.0
23/12:30pm 17.7 13.4 6.9 49 5.4 NW 19 32 10 17 1015.4 - 0.0
23/12:00pm 17.6 13.5 7.7 52 5.0 NW 19 26 10 14 1016.2 1016.2 0.0
23/11:30am 16.6 12.2 7.6 55 4.5 WNW 20 32 11 17 1016.5 - 0.0
23/11:00am 16.6 12.7 8.6 59 4.1 NNW 19 26 10 14 1016.8 - 0.0
23/10:30am 15.1 11.7 9.0 67 3.1 N 17 24 9 13 1017.2 - 0.0
23/10:00am 13.8 11.0 10.1 78 1.9 N 15 19 8 10 1017.5 - 0.0
23/09:30am 12.1 9.6 9.7 85 1.2 N 13 19 7 10 1017.8 - 0.0
23/09:00am 10.9 8.3 9.5 91 0.7 N 13 19 7 10 1018.2 1018.2 0.0
23/08:30am 9.4 7.0 8.6 95 0.4 N 11 15 6 8 1018.0 - 0.0
23/08:00am 7.6 5.6 7.0 96 0.3 NNE 7 11 4 6 1017.7 - 0.0
23/07:30am 4.8 1.9 4.6 99 0.1 NE 9 11 5 6 1017.4 - 0.0
23/07:00am 4.3 1.2 3.8 97 0.2 NNE 9 11 5 6 1017.2 - 0.0
23/06:30am 3.3 0.1 3.1 99 0.1 NNE 9 9 5 5 1017.2 - 0.0
23/06:00am 3.5 0.3 3.3 99 0.1 NNE 9 11 5 6 1017.3 1017.3 0.0
23/05:30am 2.5 -0.5 2.2 98 0.1 N 7 7 4 4 1017.6 - 0.0
23/05:00am 2.7 -0.3 2.2 96 0.2 N 7 9 4 5 1017.3 - 0.0
23/04:30am 3.6 0.8 3.4 99 0.1 N 7 11 4 6 1017.1 - 0.0
23/04:00am 4.2 1.2 4.2 100 0.0 N 9 11 5 6 1016.9 - 0.0
23/03:30am 3.2 0.4 3.0 99 0.1 N 7 9 4 5 1016.9 - 0.0
23/03:00am 4.0 0.5 3.3 95 0.3 N 11 13 6 7 1016.8 1016.8 0.0
23/02:30am 3.4 0.6 2.9 97 0.2 N 7 7 4 4 1017.2 - 0.0
23/02:00am 3.5 0.9 3.3 99 0.1 N 6 7 3 4 1017.6 - 0.0
23/01:30am 3.9 1.1 3.2 95 0.3 NNE 7 7 4 4 1017.8 - 0.0
23/01:00am 4.2 1.7 3.7 97 0.2 NNE 6 7 3 4 1017.9 - 0.0
23/12:30am 5.3 2.4 4.6 95 0.3 NE 9 11 5 6 1017.8 - 0.0
23/12:00am 5.0 2.4 4.3 95 0.3 NNE 7 9 4 5 1018.1 1018.1 0.0
 
Date/Time
CST
Temp
°C
App
Temp
°C
Dew
Point
Rel
Hum
%
Delta-T
°C
Wind Press
QNH
hPa
Press
MSL
hPa
Rain
since 9 am
mm
Dir
 
Spd
km/h
Gust
km/h
Spd
kts
Gust
kts
22/11:30pm 5.3 4.1 4.6 95 0.3 CALM 0 0 0 0 1018.4 - 0.0
22/11:00pm 4.6 2.2 4.1 97 0.2 SW 6 7 3 4 1018.5 - 0.0
22/10:30pm 6.0 4.2 5.3 95 0.3 SW 4 7 2 4 1018.8 - 0.0
22/10:00pm 5.1 3.9 4.4 95 0.3 CALM 0 0 0 0 1018.9 - 0.0
22/09:30pm 5.5 4.3 4.8 95 0.3 CALM 0 0 0 0 1018.9 - 0.0
22/09:00pm 6.0 4.9 5.1 94 0.4 CALM 0 0 0 0 1018.8 1018.8 0.0
22/08:30pm 6.9 6.0 6.0 94 0.4 CALM 0 0 0 0 1018.7 - 0.0
22/08:00pm 8.3 6.4 6.8 90 0.7 SW 6 7 3 4 1018.6 - 0.0
22/07:30pm 9.1 7.2 7.6 90 0.7 SW 7 9 4 5 1018.4 - 0.0
22/07:00pm 9.9 7.3 7.6 85 1.1 SW 11 11 6 6 1018.1 - 0.0
22/06:30pm 11.3 8.8 8.0 80 1.6 SSW 11 13 6 7 1017.8 - 0.0
22/06:00pm 12.2 9.8 8.8 80 1.7 SW 11 15 6 8 1017.4 1017.4 0.0
22/05:30pm 14.2 11.7 8.4 68 2.9 SW 11 17 6 9 1017.1 - 0.0
22/05:00pm 15.8 12.3 7.3 57 4.2 SW 15 20 8 11 1016.7 - 0.0
22/04:30pm 17.3 12.8 6.3 48 5.4 WSW 19 24 10 13 1016.5 - 0.0
22/04:00pm 18.0 13.5 6.8 48 5.6 SSW 20 28 11 15 1016.3 - 0.0
22/03:30pm 18.6 14.4 7.6 48 5.6 SW 19 28 10 15 1016.1 - 0.0
22/03:00pm 18.8 14.0 4.7 39 6.8 SW 19 30 10 16 1015.8 1015.8 0.0
22/02:30pm 18.8 14.2 5.8 42 6.4 SW 19 30 10 16 1015.7 - 0.0
22/02:00pm 18.2 13.7 6.3 45 5.9 SSW 19 30 10 16 1015.6 - 0.0
22/01:30pm 18.7 14.1 6.5 45 6.1 WSW 20 30 11 16 1015.6 - 0.0
22/01:00pm 18.5 13.9 5.4 42 6.4 WSW 19 26 10 14 1015.7 - 0.0
22/12:30pm 18.2 13.6 6.3 45 5.9 SW 20 30 11 16 1015.8 - 0.0
22/12:00pm 18.1 13.5 6.7 47 5.7 SSW 20 28 11 15 1016.0 1016.0 0.0
22/11:30am 17.6 13.5 8.7 56 4.6 SSW 20 28 11 15 1016.3 - 0.0
22/11:00am 17.5 14.6 9.5 59 4.2 WSW 15 20 8 11 1016.3 - 0.0
22/10:30am 17.2 14.2 9.3 59 4.1 SSW 15 22 8 12 1016.3 - 0.0
22/10:00am 17.2 14.9 10.4 64 3.6 SSW 13 20 7 11 1016.1 - 0.0
22/09:30am 16.7 14.2 10.9 68 3.1 SSW 15 22 8 12 1016.1 - 0.0
22/09:00am 15.9 14.3 12.8 82 1.7 SSW 13 19 7 10 1015.9 1015.9 4.8
22/08:30am 15.3 14.7 13.5 89 1.0 SSW 9 13 5 7 1015.6 - 4.8
22/08:00am 14.3 14.6 13.4 94 0.5 SW 4 7 2 4 1015.3 - 4.8
22/07:30am 13.0 12.5 12.1 94 0.5 SW 6 6 3 3 1015.1 - 4.8
22/07:00am 13.1 12.7 12.4 95 0.4 SW 6 9 3 5 1014.6 - 4.8
22/06:30am 14.1 13.4 13.2 94 0.5 SW 9 13 5 7 1014.1 - 4.8
22/06:00am 14.7 13.8 13.6 93 0.6 W 11 15 6 8 1013.7 1013.6 4.8
22/05:30am 15.0 12.6 13.8 92 0.7 W 19 26 10 14 1013.5 - 4.8
22/05:00am 14.7 14.3 14.0 96 0.4 W 9 13 5 7 1012.9 - 4.6
22/04:30am 14.5 13.6 13.8 96 0.4 WSW 11 13 6 7 1012.6 - 4.6
22/04:00am 14.9 14.9 14.2 96 0.4 NNW 7 9 4 5 1012.1 - 4.6
22/03:30am 15.5 14.8 14.4 93 0.6 N 11 17 6 9 1011.6 - 4.6
22/03:00am 15.7 15.5 14.7 94 0.6 NNE 9 13 5 7 1011.5 1011.4 4.0
22/02:30am 16.0 16.0 15.3 96 0.4 W 9 13 5 7 1012.9 - 2.8
22/02:00am 16.2 15.8 15.3 94 0.5 WSW 11 13 6 7 1013.0 - 1.4
22/01:30am 16.2 15.7 14.8 91 0.8 W 11 22 6 12 1012.5 - 1.2
22/01:00am 15.7 14.9 14.1 90 0.9 WNW 11 13 6 7 1012.4 - 1.2
22/12:30am 15.6 15.3 14.4 93 0.7 NW 9 17 5 9 1011.7 - 1.2
22/12:00am 16.1 15.4 14.4 90 1.0 N 11 15 6 8 1010.9 1010.8 1.0
 
Date/Time
CST
Temp
°C
App
Temp
°C
Dew
Point
Rel
Hum
%
Delta-T
°C
Wind Press
QNH
hPa
Press
MSL
hPa
Rain
since 9 am
mm
Dir
 
Spd
km/h
Gust
km/h
Spd
kts
Gust
kts
21/11:30pm 15.9 15.9 14.3 90 0.9 N 7 11 4 6 1011.5 - 0.6
21/11:00pm 16.0 16.6 14.2 89 1.0 W 4 13 2 7 1011.4 - 0.6
21/10:30pm 16.7 16.6 13.9 83 1.6 NE 7 9 4 5 1011.3 - 0.4
21/10:00pm 17.9 16.3 12.9 72 2.8 N 13 20 7 11 1011.3 - 0.4
21/09:30pm 17.5 17.0 12.5 72 2.8 NNE 7 9 4 5 1011.6 - 0.0
21/09:00pm 18.3 16.7 11.4 64 3.8 ENE 11 13 6 7 1011.6 1011.5 0.0
21/08:30pm 18.2 17.5 11.9 66 3.5 ENE 7 11 4 6 1011.9 - 0.0
21/08:00pm 19.1 18.2 11.5 61 4.2 S 7 11 4 6 1011.6 - 0.0
21/07:30pm 20.7 18.8 10.4 51 5.6 WSW 11 13 6 7 1011.6 - 0.0
21/07:00pm 21.1 19.3 9.6 47 6.2 W 9 13 5 7 1011.4 - 0.0
21/06:30pm 22.2 19.3 8.2 40 7.4 NW 13 19 7 10 1011.1 - 0.0
21/06:00pm 23.2 18.8 7.3 36 8.3 NW 20 32 11 17 1010.8 1010.7 0.0
21/05:30pm 21.9 19.0 8.0 40 7.3 NNW 13 17 7 9 1010.7 - 0.0
21/05:00pm 22.5 19.5 7.6 38 7.8 NNW 13 20 7 11 1010.4 - 0.0
21/04:30pm 23.1 20.0 7.4 36 8.2 N 13 20 7 11 1009.9 - 0.0
21/04:00pm 23.6 19.6 6.8 34 8.7 NW 17 26 9 14 1010.7 - 0.0
21/03:30pm 24.1 19.4 6.2 31 9.2 N 20 30 11 16 1010.1 - 0.0
21/03:00pm 23.6 19.6 6.6 33 8.8 N 17 24 9 13 1009.8 1009.7 0.0
21/02:30pm 23.3 19.2 6.4 33 8.7 N 17 26 9 14 1010.4 - 0.0
21/02:00pm 23.1 17.9 5.5 32 8.9 N 22 32 12 17 1010.6 - 0.0
21/01:30pm 22.5 17.8 5.9 34 8.4 N 20 35 11 19 1010.6 - 0.0
21/01:00pm 21.9 16.4 5.8 35 8.1 N 24 37 13 20 1011.1 - 0.0
21/12:30pm 21.1 15.9 5.7 36 7.7 N 22 35 12 19 1012.1 - 0.0
21/12:00pm 21.5 16.7 5.7 35 7.9 N 20 32 11 17 1012.6 1012.5 0.0
21/11:30am 20.5 16.7 5.9 38 7.3 N 15 26 8 14 1013.7 - 0.0
21/11:00am 18.7 14.7 6.7 45 6.0 N 17 30 9 16 1013.9 - 0.0
21/10:30am 18.4 13.6 5.5 42 6.3 N 20 33 11 18 1013.9 - 0.0
21/10:00am 18.3 11.8 4.8 41 6.5 N 28 50 15 27 1013.8 - 0.0
21/09:51am 18.2 10.9 4.3 39 6.6 N 32 50 17 27 1013.7 - 0.0
21/09:30am 17.8 11.3 4.9 42 6.2 N 28 43 15 23 1013.9 - 0.0
21/09:00am 17.0 11.1 5.7 47 5.5 N 26 37 14 20 1014.4 1014.4 0.0
21/08:30am 15.7 10.3 6.2 53 4.6 N 24 37 13 20 1014.6 - 0.0
21/08:00am 15.0 10.7 7.8 62 3.6 NNE 20 32 11 17 1014.8 - 0.0
21/07:30am 13.2 10.2 9.3 77 2.0 NNE 15 19 8 10 1015.2 - 0.0
21/07:00am 11.8 9.4 10.0 89 0.9 NNE 13 19 7 10 1015.2 - 0.0
21/06:30am 11.3 9.0 10.5 95 0.4 NE 13 19 7 10 1015.3 - 0.0
21/06:00am 11.0 9.5 10.4 96 0.3 NE 9 11 5 6 1016.2 1016.2 0.0
21/05:30am 11.1 9.6 10.7 97 0.2 NNE 9 13 5 7 1016.2 - 0.0
21/05:00am 11.0 9.9 10.6 97 0.2 ENE 7 9 4 5 1016.1 - 0.0
21/04:30am 11.3 9.9 10.9 97 0.2 NE 9 11 5 6 1015.7 - 0.0
21/04:00am 11.1 9.6 10.7 97 0.2 NE 9 11 5 6 1015.8 - 0.0
21/03:30am 11.2 10.1 10.6 96 0.3 N 7 9 4 5 1016.3 - 0.0
21/03:00am 10.9 9.8 10.5 97 0.2 NE 7 9 4 5 1016.1 1016.1 0.0
21/02:30am 11.5 10.5 11.1 97 0.2 N 7 9 4 5 1016.3 - 0.0
21/02:00am 11.5 10.2 11.1 97 0.2 NNE 9 13 5 7 1016.4 - 0.0
21/01:30am 11.3 10.3 10.9 97 0.2 NE 7 9 4 5 1016.7 - 0.0
21/01:00am 11.5 10.1 10.9 96 0.3 NE 9 11 5 6 1016.5 - 0.0
21/12:30am 10.8 8.8 10.2 96 0.3 N 11 13 6 7 1017.0 - 0.0
21/12:00am 10.5 8.8 9.9 96 0.3 N 9 11 5 6 1017.6 1017.6 0.0
 
Date/Time
CST
Temp
°C
App
Temp
°C
Dew
Point
Rel
Hum
%
Delta-T
°C
Wind Press
QNH
hPa
Press
MSL
hPa
Rain
since 9 am
mm
Dir
 
Spd
km/h
Gust
km/h
Spd
kts
Gust
kts
20/11:30pm 10.8 9.2 10.2 96 0.3 N 9 11 5 6 1017.4 - 0.0
20/11:00pm 11.3 9.8 10.5 95 0.4 N 9 11 5 6 1017.6 - 0.0
20/10:30pm 10.8 9.1 10.0 95 0.4 N 9 11 5 6 1017.9 - 0.0

Other Formats:

Comma delimited format used in spreadsheet applications
http://www.bom.gov.au/fwo/IDS60801/IDS60801.94817.axf

JavaScript Object Notation format (JSON) in row-major order
http://www.bom.gov.au/fwo/IDS60801/IDS60801.94817.json